Time;durP1;ratioP1;P1;durP2;ratioP2;P2;SDS_P1;SDS_P2;PMS_P1;PMS_P2;Temp;Humidity;BMP_temperature;BMP_pressure;BME280_temperature;BME280_humidity;BME280_pressure;Samples;Min_cycle;Max_cycle;Signal;HPM_P1;HPM_P2
2021/06/16 00:01:12;;;;;;;;;21.00;20.75;;;;;24.40;51.01;101223.38;4965312;28;57029;-73
2021/06/16 00:03:37;;;;;;;;;20.50;18.00;;;;;24.34;50.34;101214.31;4960602;28;45575;-74
2021/06/16 00:06:03;;;;;;;;;20.25;20.25;;;;;24.32;50.83;101221.00;4964466;28;45853;-74
2021/06/16 00:08:28;;;;;;;;;22.25;21.50;;;;;24.29;51.26;101216.06;4967089;28;45587;-74
2021/06/16 00:10:53;;;;;;;;;18.75;18.50;;;;;24.27;51.53;101212.78;4962311;28;46439;-74
2021/06/16 00:13:19;;;;;;;;;21.75;19.00;;;;;24.24;51.33;101219.47;4961291;28;45540;-73
2021/06/16 00:15:46;;;;;;;;;21.00;21.00;;;;;24.21;51.57;101206.41;4959095;28;45446;-74
2021/06/16 00:18:12;;;;;;;;;20.25;19.00;;;;;24.19;51.43;101211.22;4961916;28;45735;-74
2021/06/16 00:20:38;;;;;;;;;20.00;19.00;;;;;24.17;51.69;101213.31;4965877;28;46180;-73
2021/06/16 00:23:04;;;;;;;;;19.75;19.75;;;;;24.14;51.84;101208.38;4965891;28;45556;-73
2021/06/16 00:25:30;;;;;;;;;22.75;20.75;;;;;24.10;51.82;101202.59;4962221;28;45764;-73
2021/06/16 00:27:56;;;;;;;;;19.25;17.00;;;;;24.07;52.04;101192.25;4962167;28;45636;-74
2021/06/16 00:30:22;;;;;;;;;17.50;16.75;;;;;24.06;52.06;101195.19;4972830;28;46506;-73
2021/06/16 00:32:47;;;;;;;;;16.25;16.25;;;;;24.03;52.00;101191.06;4962656;28;45805;-73
2021/06/16 00:35:18;;;;;;;;;19.50;17.75;;;;;24.01;52.03;101198.56;4970066;28;45705;-73
2021/06/16 00:37:44;;;;;;;;;15.50;15.50;;;;;23.98;53.40;101194.44;4962981;28;45729;-74
2021/06/16 00:40:12;;;;;;;;;19.75;19.25;;;;;23.96;52.34;101187.63;4962295;28;45588;-74
2021/06/16 00:42:37;;;;;;;;;21.25;19.50;;;;;23.93;52.43;101188.06;4960103;28;45546;-73
2021/06/16 00:45:05;;;;;;;;;20.25;18.75;;;;;23.92;52.61;101194.53;4962353;28;48172;-73
2021/06/16 00:47:31;;;;;;;;;20.75;19.00;;;;;23.88;52.73;101188.75;4965963;28;45523;-74
2021/06/16 00:49:56;;;;;;;;;22.00;19.00;;;;;23.87;52.80;101183.59;4961535;28;45571;-74
2021/06/16 00:52:22;;;;;;;;;19.25;18.00;;;;;23.84;52.87;101184.88;4961031;28;59071;-74
2021/06/16 00:54:47;;;;;;;;;20.00;17.25;;;;;23.80;52.98;101176.41;4962913;28;45634;-73
2021/06/16 00:57:13;;;;;;;;;17.25;17.25;;;;;23.78;53.44;101178.50;4963424;28;46254;-74
2021/06/16 00:59:53;;;;;;;;;17.75;17.25;;;;;23.75;53.94;101180.84;4965376;28;46186;-73
2021/06/16 01:02:20;;;;;;;;;21.00;18.75;;;;;23.71;53.56;101174.19;4966109;28;45537;-74
2021/06/16 01:04:48;;;;;;;;;22.00;18.75;;;;;23.64;54.50;101166.19;4964346;28;46002;-74
2021/06/16 01:07:15;;;;;;;;;20.25;20.25;;;;;23.61;53.70;101166.63;4963005;28;45465;-76
2021/06/16 01:09:52;;;;;;;;;20.25;18.00;;;;;23.59;53.98;101169.56;4960844;28;46207;-74
2021/06/16 01:12:43;;;;;;;;;20.75;18.50;;;;;23.56;53.96;101164.59;4954835;28;45557;-80
2021/06/16 01:15:18;;;;;;;;;17.50;17.00;;;;;23.52;54.26;101162.59;4961687;28;45636;-73
2021/06/16 01:17:48;;;;;;;;;17.75;16.25;;;;;23.50;54.26;101162.81;4963611;28;45713;-74
2021/06/16 01:20:43;;;;;;;;;23.00;22.00;;;;;23.48;53.93;101159.50;4964280;28;45720;-76
2021/06/16 01:23:09;;;;;;;;;17.75;16.75;;;;;23.48;54.21;101150.59;4963371;28;45472;-73
2021/06/16 01:25:41;;;;;;;;;19.25;18.00;;;;;23.47;54.29;101154.38;4962193;28;45501;-73
2021/06/16 01:28:09;;;;;;;;;18.25;17.00;;;;;23.45;54.53;101149.19;4960485;28;45540;-75
2021/06/16 01:30:35;;;;;;;;;18.25;18.25;;;;;23.44;54.53;101152.09;4960125;28;46271;-75
2021/06/16 01:33:04;;;;;;;;;20.75;19.00;;;;;23.41;54.11;101142.59;4959791;28;45616;-75
2021/06/16 01:35:30;;;;;;;;;17.25;17.25;;;;;23.39;54.68;101140.13;4963059;28;45382;-74
2021/06/16 01:38:00;;;;;;;;;18.50;17.50;;;;;23.34;54.69;101139.97;4960560;28;45619;-76
2021/06/16 01:40:28;;;;;;;;;19.50;16.75;;;;;23.31;54.81;101142.28;4958984;28;46509;-75
2021/06/16 01:42:56;;;;;;;;;19.25;19.25;;;;;23.30;54.82;101146.03;4973378;28;45625;-74
2021/06/16 01:45:22;;;;;;;;;19.50;17.50;;;;;23.27;55.18;101141.91;4960812;28;45345;-75
2021/06/16 01:47:50;;;;;;;;;19.00;19.00;;;;;23.24;55.00;101141.53;4962367;28;46024;-75
2021/06/16 01:50:19;;;;;;;;;18.25;18.25;;;;;23.23;55.39;101137.19;4965975;28;45760;-76
2021/06/16 01:52:48;;;;;;;;;21.75;20.25;;;;;23.18;55.52;101137.84;4960763;28;45583;-74
2021/06/16 01:55:15;;;;;;;;;18.00;17.00;;;;;23.16;55.41;101134.56;4962707;28;45597;-74
2021/06/16 01:57:41;;;;;;;;;19.75;19.00;;;;;23.16;55.34;101137.25;4960730;28;45455;-74
2021/06/16 02:00:07;;;;;;;;;20.25;18.00;;;;;23.15;55.37;101135.63;4960692;28;46688;-75
2021/06/16 02:02:37;;;;;;;;;21.00;17.50;;;;;23.13;55.88;101130.44;4961723;28;45669;-75
2021/06/16 02:05:08;;;;;;;;;17.75;17.75;;;;;23.09;55.24;101126.53;4956669;28;45464;-74
2021/06/16 02:07:41;;;;;;;;;20.50;20.50;;;;;23.08;55.60;101126.75;4975852;28;46017;-73
2021/06/16 02:10:11;;;;;;;;;21.00;20.00;;;;;23.05;56.27;101128.03;4956710;28;46605;-75
2021/06/16 02:12:43;;;;;;;;;21.75;20.25;;;;;23.01;55.96;101123.31;4960015;28;45460;-74
2021/06/16 02:15:13;;;;;;;;;20.75;20.75;;;;;22.97;56.05;101120.19;4960741;28;45689;-74
2021/06/16 02:17:47;;;;;;;;;22.00;21.50;;;;;22.93;56.19;101122.50;4964519;28;45614;-74
2021/06/16 02:20:13;;;;;;;;;19.00;18.75;;;;;22.89;56.67;101120.47;4965289;28;46528;-73
2021/06/16 02:22:39;;;;;;;;;20.00;20.00;;;;;22.83;56.61;101111.41;4961858;28;45783;-74
2021/06/16 02:25:05;;;;;;;;;23.25;23.25;;;;;22.79;56.80;101117.47;4961713;28;45765;-74
2021/06/16 02:27:30;;;;;;;;;23.25;21.50;;;;;22.73;56.80;101109.22;4960622;28;45534;-74
2021/06/16 02:29:56;;;;;;;;;25.75;22.00;;;;;22.69;56.99;101109.88;4957509;28;46818;-74
2021/06/16 02:32:21;;;;;;;;;27.50;23.50;;;;;22.64;57.19;101107.84;4965338;28;45556;-73
2021/06/16 02:34:47;;;;;;;;;21.25;21.25;;;;;22.63;57.08;101105.38;4962077;28;45524;-75
2021/06/16 02:37:17;;;;;;;;;20.50;19.00;;;;;22.59;57.31;101109.56;4959208;28;45453;-75
2021/06/16 02:39:49;;;;;;;;;19.00;18.50;;;;;22.56;57.21;101101.91;4961070;28;45736;-75
2021/06/16 02:42:16;;;;;;;;;20.50;20.00;;;;;22.50;57.29;101099.06;4959346;28;46741;-75
2021/06/16 02:44:47;;;;;;;;;19.00;17.75;;;;;22.45;57.49;101087.28;4976429;28;45497;-75
2021/06/16 02:47:15;;;;;;;;;22.75;22.25;;;;;22.40;58.14;101082.53;4965721;28;46032;-75
2021/06/16 02:49:47;;;;;;;;;25.75;21.75;;;;;22.38;58.19;101081.97;4960735;28;46180;-74
2021/06/16 02:52:16;;;;;;;;;21.50;20.50;;;;;22.34;58.12;101086.13;4959340;28;45600;-75
2021/06/16 02:54:44;;;;;;;;;23.75;20.25;;;;;22.33;57.92;101087.19;4959693;28;45535;-74
2021/06/16 02:57:17;;;;;;;;;24.00;22.25;;;;;22.29;58.14;101083.28;4965314;28;45588;-75
2021/06/16 02:59:46;;;;;;;;;25.50;22.25;;;;;22.27;58.50;101086.16;4964346;28;47406;-74
2021/06/16 03:02:13;;;;;;;;;19.75;18.75;;;;;22.24;58.54;101080.41;4968141;28;45501;-75
2021/06/16 03:04:40;;;;;;;;;24.25;22.25;;;;;22.21;59.11;101081.66;4961886;28;45987;-74
2021/06/16 03:07:05;;;;;;;;;21.75;20.25;;;;;22.19;58.77;101093.66;4963757;28;45527;-75
2021/06/16 03:09:32;;;;;;;;;26.00;23.25;;;;;22.13;58.52;101084.56;4965651;28;46380;-74
2021/06/16 03:11:59;;;;;;;;;23.00;21.00;;;;;22.11;58.85;101090.19;4964957;28;45609;-75
2021/06/16 03:14:25;;;;;;;;;22.25;21.25;;;;;22.08;59.37;101087.94;4969293;28;46015;-74
2021/06/16 03:16:52;;;;;;;;;22.00;20.50;;;;;22.05;59.11;101082.97;4964099;28;45555;-75
2021/06/16 03:19:21;;;;;;;;;23.50;19.50;;;;;22.06;59.18;101083.81;4964379;28;45448;-74
2021/06/16 03:21:48;;;;;;;;;28.00;23.50;;;;;22.02;59.05;101083.41;4962092;28;50544;-75
2021/06/16 03:24:16;;;;;;;;;21.00;20.75;;;;;22.00;59.39;101085.50;4962277;28;45505;-74
2021/06/16 03:26:42;;;;;;;;;21.25;21.00;;;;;21.99;60.08;101083.84;4966233;28;45534;-74
2021/06/16 03:29:09;;;;;;;;;26.00;24.25;;;;;21.97;59.72;101085.94;4965665;28;46517;-74
2021/06/16 03:31:37;;;;;;;;;25.50;24.00;;;;;21.95;59.89;101088.00;4963684;28;45503;-74
2021/06/16 03:34:02;;;;;;;;;24.25;22.50;;;;;21.92;59.75;101083.06;4961538;28;45504;-74
2021/06/16 03:36:28;;;;;;;;;23.25;22.25;;;;;21.89;59.92;101084.31;4964385;28;45483;-74
2021/06/16 03:38:53;;;;;;;;;21.75;21.00;;;;;21.87;59.80;101088.28;4963787;28;46448;-74
2021/06/16 03:41:21;;;;;;;;;23.00;19.75;;;;;21.85;59.98;101085.78;4967499;28;45698;-74
2021/06/16 03:43:51;;;;;;;;;24.75;22.25;;;;;21.84;59.92;101081.44;4964107;28;45621;-74
2021/06/16 03:46:18;;;;;;;;;25.25;24.00;;;;;21.84;60.33;101081.44;4964663;28;45705;-75
2021/06/16 03:48:45;;;;;;;;;27.25;24.00;;;;;21.83;60.59;101087.84;4963718;28;45926;-74
2021/06/16 03:51:12;;;;;;;;;25.50;22.50;;;;;21.84;60.10;101086.03;4962446;28;45460;-75
2021/06/16 03:53:38;;;;;;;;;25.75;22.75;;;;;21.82;60.28;101088.09;4965110;28;45571;-74
2021/06/16 03:56:04;;;;;;;;;26.25;23.25;;;;;21.81;60.49;101091.81;4965385;28;45596;-74
2021/06/16 03:58:30;;;;;;;;;30.75;26.25;;;;;21.80;60.63;101088.28;4962617;28;46764;-74
2021/06/16 04:00:56;;;;;;;;;27.75;26.25;;;;;21.77;60.73;101085.22;4961783;28;45792;-74
2021/06/16 04:03:22;;;;;;;;;23.50;23.50;;;;;21.77;60.96;101086.03;4965237;28;45526;-74
2021/06/16 04:05:47;;;;;;;;;25.25;25.25;;;;;21.77;60.65;101080.66;4965228;28;45432;-75
2021/06/16 04:08:14;;;;;;;;;28.00;26.75;;;;;21.79;60.93;101089.34;4967675;28;46086;-74
2021/06/16 04:10:45;;;;;;;;;25.00;23.00;;;;;21.82;61.23;101078.16;4964911;28;45760;-74
2021/06/16 04:13:11;;;;;;;;;26.75;23.00;;;;;21.86;60.63;101073.19;4976654;28;47240;-74
2021/06/16 04:15:37;;;;;;;;;22.50;21.75;;;;;21.91;60.78;101081.44;4965337;28;46216;-74
2021/06/16 04:18:02;;;;;;;;;24.50;23.75;;;;;21.94;60.12;101081.00;4965576;28;45522;-76
2021/06/16 04:20:29;;;;;;;;;27.00;26.00;;;;;21.98;60.31;101082.19;4968853;28;45672;-72
2021/06/16 04:22:55;;;;;;;;;23.50;23.50;;;;;22.03;60.63;101081.53;4966411;28;45645;-74
2021/06/16 04:25:23;;;;;;;;;26.00;24.00;;;;;22.09;60.69;101084.19;4961441;28;45504;-72
2021/06/16 04:27:49;;;;;;;;;27.75;24.25;;;;;22.13;60.43;101079.19;4964343;28;45986;-75
2021/06/16 04:30:18;;;;;;;;;25.00;23.75;;;;;22.17;60.49;101079.59;4963934;28;45438;-73
2021/06/16 04:32:44;;;;;;;;;29.75;25.50;;;;;22.21;59.97;101075.47;4963074;28;45624;-73
2021/06/16 04:35:10;;;;;;;;;25.75;24.25;;;;;22.25;59.57;101079.34;4979498;28;45961;-73
2021/06/16 04:37:36;;;;;;;;;25.00;23.75;;;;;22.28;59.96;101073.56;4963073;28;45588;-73
2021/06/16 04:40:04;;;;;;;;;24.25;24.25;;;;;22.33;60.15;101069.16;4965374;28;46652;-73
2021/06/16 04:42:29;;;;;;;;;24.25;23.50;;;;;22.39;60.03;101064.75;4960225;28;45489;-73
2021/06/16 04:44:55;;;;;;;;;29.25;24.75;;;;;22.45;60.23;101063.91;4962955;28;45668;-73
2021/06/16 04:47:20;;;;;;;;;24.00;24.00;;;;;22.53;59.62;101069.00;4965726;28;46658;-72
2021/06/16 04:49:45;;;;;;;;;24.25;24.25;;;;;22.60;59.72;101063.56;4961309;28;45829;-72
2021/06/16 04:52:12;;;;;;;;;27.25;26.00;;;;;22.67;59.35;101066.16;4959927;28;45558;-73
2021/06/16 04:54:37;;;;;;;;;29.50;26.75;;;;;22.72;59.05;101058.25;4962587;28;45731;-72
2021/06/16 04:57:04;;;;;;;;;27.50;25.75;;;;;22.80;60.06;101060.69;4965574;28;46396;-73
2021/06/16 04:59:31;;;;;;;;;28.00;25.00;;;;;22.78;59.10;101054.69;4966391;28;45523;-73
2021/06/16 05:01:56;;;;;;;;;33.00;26.00;;;;;22.80;58.80;101052.59;4962470;28;45465;-72
2021/06/16 05:04:22;;;;;;;;;30.25;27.25;;;;;22.85;58.94;101047.34;4963024;28;45575;-73
2021/06/16 05:06:48;;;;;;;;;27.75;24.25;;;;;22.88;58.05;101043.41;4961493;28;45552;-74
2021/06/16 05:09:14;;;;;;;;;27.25;25.50;;;;;22.91;58.59;101043.75;4961318;28;45571;-73
2021/06/16 05:11:39;;;;;;;;;31.75;27.25;;;;;22.92;58.53;101045.41;4964656;28;45512;-74
2021/06/16 05:14:05;;;;;;;;;22.50;22.00;;;;;22.89;59.56;101051.22;4966900;28;45699;-73
2021/06/16 05:16:30;;;;;;;;;26.50;24.50;;;;;22.86;58.23;101043.59;4958756;28;48277;-73
2021/06/16 05:18:57;;;;;;;;;27.25;24.50;;;;;22.88;58.28;101036.13;4962973;28;46019;-74
2021/06/16 05:21:23;;;;;;;;;22.25;21.50;;;;;22.98;57.98;101049.13;4963885;28;45469;-73
2021/06/16 05:23:49;;;;;;;;;26.75;24.75;;;;;23.01;58.10;101043.28;4963404;28;45550;-74
2021/06/16 05:26:15;;;;;;;;;22.00;22.00;;;;;23.06;58.39;101040.72;4964522;28;47473;-72
2021/06/16 05:28:41;;;;;;;;;27.00;27.00;;;;;23.12;58.33;101039.84;4960768;28;45595;-73
2021/06/16 05:31:07;;;;;;;;;27.25;24.00;;;;;23.21;57.33;101040.34;4961442;28;45534;-75
2021/06/16 05:33:32;;;;;;;;;29.25;26.25;;;;;23.33;56.68;101040.41;4960203;28;45448;-75
2021/06/16 05:35:58;;;;;;;;;26.25;24.75;;;;;23.40;57.25;101044.69;4964108;28;45365;-75
2021/06/16 05:38:25;;;;;;;;;26.00;22.75;;;;;23.44;56.43;101038.81;4964362;28;45643;-75
2021/06/16 05:40:50;;;;;;;;;26.50;24.50;;;;;23.46;56.16;101050.22;4959630;28;45578;-75
2021/06/16 05:43:15;;;;;;;;;26.25;23.75;;;;;23.48;56.05;101043.53;4961795;28;45590;-71
2021/06/16 05:45:41;;;;;;;;;26.00;24.50;;;;;23.55;56.43;101046.16;4957286;28;48772;-75
2021/06/16 05:48:07;;;;;;;;;24.00;23.50;;;;;23.66;55.76;101050.75;4962078;28;45520;-76
2021/06/16 05:50:33;;;;;;;;;25.25;23.25;;;;;23.71;55.27;101045.50;4967067;28;45614;-73
2021/06/16 05:52:58;;;;;;;;;26.50;24.50;;;;;23.75;54.91;101049.44;4957417;28;45552;-74
2021/06/16 05:55:23;;;;;;;;;23.00;20.50;;;;;23.80;55.32;101040.66;4961806;28;45555;-74
2021/06/16 05:57:49;;;;;;;;;25.75;24.75;;;;;23.92;55.16;101043.41;4957110;28;45461;-73
2021/06/16 06:00:17;;;;;;;;;24.00;23.00;;;;;23.96;54.75;101040.00;4961695;28;45650;-73
2021/06/16 06:02:43;;;;;;;;;26.25;24.75;;;;;23.98;54.63;101037.88;4962136;28;45927;-71
2021/06/16 06:05:09;;;;;;;;;25.50;22.50;;;;;24.01;54.70;101044.69;4960138;28;45541;-71
2021/06/16 06:07:35;;;;;;;;;30.25;26.75;;;;;24.06;54.75;101034.03;4960613;28;45459;-72
2021/06/16 06:10:00;;;;;;;;;32.75;29.25;;;;;24.19;54.47;101036.53;4962822;28;45559;-74
2021/06/16 06:12:26;;;;;;;;;28.50;26.75;;;;;24.25;54.69;101042.88;4960882;28;45653;-72
2021/06/16 06:14:51;;;;;;;;;28.75;27.00;;;;;24.27;54.16;101050.75;4960147;28;46024;-71
2021/06/16 06:17:17;;;;;;;;;27.25;25.25;;;;;24.22;54.34;101035.25;4962622;28;45777;-73
2021/06/16 06:19:43;;;;;;;;;27.00;25.00;;;;;24.30;54.65;101043.00;4957376;28;46209;-77
2021/06/16 06:22:11;;;;;;;;;29.75;26.50;;;;;24.40;54.38;101037.81;4960370;28;45805;-72
2021/06/16 06:24:37;;;;;;;;;27.75;26.25;;;;;24.57;53.75;101039.88;4960595;28;54192;-73
2021/06/16 06:27:02;;;;;;;;;24.50;24.50;;;;;24.67;53.89;101030.09;4959783;28;45484;-72
2021/06/16 06:29:27;;;;;;;;;30.75;26.75;;;;;24.79;53.29;101037.41;4965394;28;45510;-72
2021/06/16 06:31:53;;;;;;;;;29.25;26.00;;;;;24.80;53.01;101037.19;4958721;28;46484;-72
2021/06/16 06:34:19;;;;;;;;;27.25;25.25;;;;;24.86;53.13;101038.09;4958997;28;45630;-72
2021/06/16 06:36:44;;;;;;;;;23.25;20.00;;;;;24.92;52.69;101031.72;4959735;28;45555;-79
2021/06/16 06:39:10;;;;;;;;;24.25;23.00;;;;;24.99;52.67;101035.13;4960405;28;45404;-71
2021/06/16 06:41:36;;;;;;;;;22.50;22.50;;;;;25.09;52.49;101027.22;4964339;28;45536;-72
2021/06/16 06:44:02;;;;;;;;;23.50;21.75;;;;;25.19;52.33;101031.25;4960627;28;46712;-72
2021/06/16 06:46:27;;;;;;;;;24.00;22.25;;;;;25.27;52.09;101033.56;4960466;28;45484;-72
2021/06/16 06:48:53;;;;;;;;;19.50;19.25;;;;;25.38;52.11;101027.31;4962458;28;45804;-73
2021/06/16 06:51:18;;;;;;;;;24.00;23.75;;;;;25.46;52.02;101020.69;4976942;28;45782;-75
2021/06/16 06:53:43;;;;;;;;;30.75;24.50;;;;;25.53;51.88;101024.91;4960447;28;49375;-72
2021/06/16 06:56:09;;;;;;;;;29.00;26.00;;;;;25.66;52.20;101031.88;4962204;28;45552;-73
2021/06/16 06:58:34;;;;;;;;;27.00;25.25;;;;;25.74;51.51;101025.25;4959989;28;45758;-74
2021/06/16 07:01:00;;;;;;;;;25.50;24.00;;;;;25.77;51.03;101022.09;4962415;28;45424;-75
2021/06/16 07:03:26;;;;;;;;;24.00;23.00;;;;;25.84;51.34;101016.50;4959689;28;45648;-75
2021/06/16 07:05:52;;;;;;;;;21.75;21.00;;;;;25.95;50.81;101015.66;4961652;28;45675;-74
2021/06/16 07:08:17;;;;;;;;;21.75;20.75;;;;;26.03;50.85;101007.13;4963283;28;45900;-74
2021/06/16 07:10:42;;;;;;;;;21.75;20.00;;;;;26.17;50.12;101010.34;4959211;28;56360;-76
2021/06/16 07:13:09;;;;;;;;;22.75;20.00;;;;;26.20;49.97;101006.31;4957886;28;46530;-74
2021/06/16 07:15:34;;;;;;;;;20.75;20.00;;;;;26.23;49.59;101003.91;4958055;28;45575;-73
2021/06/16 07:18:00;;;;;;;;;23.75;22.00;;;;;26.32;49.99;101001.63;4960966;28;45864;-74
2021/06/16 07:20:25;;;;;;;;;20.25;19.00;;;;;26.50;50.27;101005.94;4962867;28;45463;-76
2021/06/16 07:22:51;;;;;;;;;21.00;19.00;;;;;26.73;50.10;100999.53;4957998;28;46083;-73
2021/06/16 07:25:19;;;;;;;;;17.00;16.25;;;;;26.98;49.62;101005.28;4956853;28;45917;-74
2021/06/16 07:27:45;;;;;;;;;20.50;19.00;;;;;27.19;48.10;101011.81;4956871;28;45795;-74
2021/06/16 07:30:11;;;;;;;;;19.25;18.00;;;;;27.29;48.13;101004.88;4959922;28;45408;-75
2021/06/16 07:32:36;;;;;;;;;15.00;15.00;;;;;27.42;47.40;101009.88;4962564;28;45583;-75
2021/06/16 07:35:03;;;;;;;;;18.00;16.50;;;;;27.60;47.33;101003.31;4961554;28;45496;-74
2021/06/16 07:37:29;;;;;;;;;20.75;18.25;;;;;27.91;47.93;101001.69;4953210;28;45532;-73
2021/06/16 07:39:55;;;;;;;;;18.50;17.25;;;;;28.24;46.14;101000.63;4956482;28;45596;-73
2021/06/16 07:42:21;;;;;;;;;17.25;17.25;;;;;28.55;46.83;100989.97;4957085;28;47366;-73
2021/06/16 07:44:48;;;;;;;;;17.00;15.00;;;;;28.81;45.85;100984.66;4963925;28;45366;-73
2021/06/16 07:47:13;;;;;;;;;18.25;18.25;;;;;28.90;45.16;100988.50;4966116;28;45648;-73
2021/06/16 07:49:38;;;;;;;;;19.25;19.00;;;;;29.13;45.01;100981.84;4962223;28;45704;-73
2021/06/16 07:52:04;;;;;;;;;19.25;16.25;;;;;29.49;44.70;100981.91;4963182;28;45634;-73
2021/06/16 07:54:30;;;;;;;;;15.00;15.00;;;;;29.90;43.90;100981.97;4962349;28;45648;-74
2021/06/16 07:56:55;;;;;;;;;16.00;16.00;;;;;30.22;43.39;100977.03;4963047;28;45600;-72
2021/06/16 07:59:20;;;;;;;;;13.50;12.00;;;;;31.30;42.09;100976.69;4964789;28;46005;-72
2021/06/16 08:01:47;;;;;;;;;16.25;14.75;;;;;34.01;37.68;100975.53;4961433;28;46174;-72
2021/06/16 08:04:13;;;;;;;;;18.25;14.50;;;;;36.84;34.71;100976.97;4961033;28;45558;-73
2021/06/16 08:06:38;;;;;;;;;16.00;15.50;;;;;39.31;31.30;100981.97;4960657;28;45797;-71
2021/06/16 08:09:04;;;;;;;;;17.50;14.75;;;;;41.56;28.90;100985.00;4962261;28;45480;-72
2021/06/16 08:11:30;;;;;;;;;14.75;14.75;;;;;43.46;26.62;100981.19;4967449;28;46164;-72
2021/06/16 08:13:56;;;;;;;;;14.75;13.50;;;;;44.72;20.72;100989.75;4960831;28;45670;-72
2021/06/16 08:16:22;;;;;;;;;12.00;12.00;;;;;45.05;22.79;100988.19;4965168;28;52607;-73
2021/06/16 08:18:50;;;;;;;;;12.75;12.00;;;;;45.63;22.92;100984.13;4962669;28;45514;-72
2021/06/16 08:21:16;;;;;;;;;15.50;15.00;;;;;46.70;18.46;100982.19;4962671;28;47220;-73
2021/06/16 08:23:46;;;;;;;;;14.25;14.25;;;;;47.05;18.10;100985.59;4964298;28;45602;-72
2021/06/16 08:26:12;;;;;;;;;14.00;13.00;;;;;47.36;20.91;100984.13;4964518;28;45436;-72
2021/06/16 08:28:39;;;;;;;;;13.25;11.75;;;;;48.22;20.14;100978.63;4962390;28;45863;-73
2021/06/16 08:31:06;;;;;;;;;15.50;14.25;;;;;49.05;19.26;100977.22;4963974;28;45514;-73
2021/06/16 08:33:31;;;;;;;;;13.25;13.25;;;;;49.97;19.50;100979.06;4962702;28;45977;-72
2021/06/16 08:35:57;;;;;;;;;10.50;9.25;;;;;50.06;18.08;100980.22;4963601;28;45583;-73
2021/06/16 08:38:22;;;;;;;;;12.25;11.00;;;;;50.06;17.38;100977.41;4966897;28;45835;-73
2021/06/16 08:40:48;;;;;;;;;12.25;11.00;;;;;50.20;16.10;100975.66;4961851;28;46172;-73
2021/06/16 08:43:14;;;;;;;;;10.75;10.50;;;;;50.38;17.02;100967.88;4960705;28;53319;-72
2021/06/16 08:45:41;;;;;;;;;14.00;13.25;;;;;51.04;16.64;100969.50;4964525;28;45494;-72
2021/06/16 08:48:08;;;;;;;;;10.75;10.25;;;;;51.32;16.21;100965.50;4961537;28;45926;-72
2021/06/16 08:50:33;;;;;;;;;11.75;8.25;;;;;51.64;16.12;100964.22;4963801;28;45840;-73
2021/06/16 08:52:59;;;;;;;;;11.00;10.75;;;;;51.76;14.61;100971.28;4960825;28;45516;-72
2021/06/16 08:55:24;;;;;;;;;8.00;7.00;;;;;51.64;15.29;100964.22;4956356;28;45641;-72
2021/06/16 08:57:50;;;;;;;;;9.50;9.25;;;;;51.32;14.11;100953.47;4961931;28;45959;-72
2021/06/16 09:00:18;;;;;;;;;11.50;9.75;;;;;51.38;15.95;100952.56;4963060;28;46586;-73
2021/06/16 09:02:44;;;;;;;;;9.00;9.00;;;;;51.91;12.71;100957.75;4964337;28;45491;-72
2021/06/16 09:05:11;;;;;;;;;10.50;9.25;;;;;51.95;14.56;100955.69;4961866;28;45491;-73
2021/06/16 09:07:39;;;;;;;;;7.50;7.25;;;;;51.94;14.17;100948.47;4962288;28;45656;-73
2021/06/16 09:10:20;;;;;;;;;9.00;8.25;;;;;51.33;14.28;100953.03;4961079;28;46366;-72
2021/06/16 09:12:50;;;;;;;;;9.50;8.50;;;;;51.18;14.94;100943.22;4972945;28;45999;-72
2021/06/16 09:15:20;;;;;;;;;10.25;10.25;;;;;51.11;14.80;100951.75;4963023;28;45632;-72
2021/06/16 09:18:08;;;;;;;;;8.25;8.25;;;;;51.31;15.20;100944.19;4963479;28;45492;-72
2021/06/16 09:20:45;;;;;;;;;8.75;8.75;;;;;50.70;15.12;100945.03;4963160;28;46355;-72
2021/06/16 09:23:15;;;;;;;;;9.00;8.75;;;;;50.02;15.96;100942.94;4964014;28;45488;-72
2021/06/16 09:25:42;;;;;;;;;9.75;9.75;;;;;49.69;16.43;100938.81;4959409;28;45625;-72
2021/06/16 09:28:07;;;;;;;;;9.75;7.50;;;;;48.59;16.40;100926.94;4962821;28;53949;-73
2021/06/16 09:30:36;;;;;;;;;7.75;7.75;;;;;47.94;17.14;100927.03;4961563;28;46129;-72
2021/06/16 09:33:07;;;;;;;;;9.50;9.00;;;;;47.22;17.68;100926.16;4960339;28;45873;-72
2021/06/16 09:35:36;;;;;;;;;10.75;9.75;;;;;46.61;18.38;100914.69;4965646;28;45436;-73
2021/06/16 09:38:05;;;;;;;;;9.00;9.00;;;;;46.28;17.58;100913.69;4960108;28;45641;-72
2021/06/16 09:40:34;;;;;;;;;8.25;7.00;;;;;46.06;17.88;100909.97;4960995;28;47255;-72
2021/06/16 09:43:11;;;;;;;;;8.75;8.75;;;;;45.32;17.44;100915.66;4960683;28;45671;-75
2021/06/16 09:45:39;;;;;;;;;7.00;6.75;;;;;44.46;19.23;100918.13;4961399;28;45536;-71
2021/06/16 09:48:22;;;;;;;;;8.75;8.25;;;;;44.27;17.51;100918.22;4959555;28;45641;-75
2021/06/16 09:50:51;;;;;;;;;8.50;8.50;;;;;43.50;19.46;100908.94;4962047;28;46038;-72
2021/06/16 09:53:17;;;;;;;;;9.75;9.00;;;;;42.91;18.96;100897.91;4963148;28;45379;-73
2021/06/16 09:55:42;;;;;;;;;11.75;9.25;;;;;42.52;20.08;100900.63;4960393;28;45749;-72
2021/06/16 09:58:10;;;;;;;;;7.00;7.00;;;;;42.28;20.08;100898.84;4960762;28;45594;-73
2021/06/16 10:00:47;;;;;;;;;11.25;10.25;;;;;42.15;21.00;100900.13;4959793;28;46283;-72
2021/06/16 10:03:32;;;;;;;;;5.75;5.75;;;;;42.21;20.32;100904.22;4961227;28;45528;-72
2021/06/16 10:06:14;;;;;;;;;8.00;7.75;;;;;42.01;20.27;100906.13;4961753;28;46249;-73
2021/06/16 10:08:50;;;;;;;;;9.25;9.25;;;;;41.93;20.12;100909.09;4963027;28;46150;-73
2021/06/16 10:11:20;;;;;;;;;8.50;8.50;;;;;41.70;21.12;100900.59;4963781;28;46213;-73
2021/06/16 10:13:47;;;;;;;;;8.75;8.00;;;;;41.61;21.12;100892.44;4949512;28;46190;-73
2021/06/16 10:16:13;;;;;;;;;9.25;8.25;;;;;41.53;21.32;100894.22;4955419;28;45512;-73
2021/06/16 10:18:43;;;;;;;;;9.25;8.00;;;;;41.65;19.63;100902.47;4957496;28;46075;-73
2021/06/16 10:21:10;;;;;;;;;10.00;9.25;;;;;41.67;20.62;100902.09;4961529;28;45635;-73
2021/06/16 10:23:36;;;;;;;;;8.00;8.00;;;;;41.33;19.71;100907.13;4963509;28;45697;-73
2021/06/16 10:26:29;;;;;;;;;8.00;7.75;;;;;40.74;21.50;100900.28;4955803;28;45546;-74
2021/06/16 10:29:01;;;;;;;;;7.75;7.75;;;;;40.89;21.88;100900.69;4958626;28;45667;-73
2021/06/16 10:31:35;;;;;;;;;12.50;11.50;;;;;41.46;21.50;100894.00;4958770;28;46203;-73
2021/06/16 10:34:01;;;;;;;;;10.00;10.00;;;;;41.87;22.14;100887.16;4958240;28;45590;-73
2021/06/16 10:36:26;;;;;;;;;10.50;10.00;;;;;42.36;20.89;100893.47;4956525;28;45628;-73
2021/06/16 10:39:00;;;;;;;;;10.00;10.00;;;;;42.83;21.47;100873.94;4962695;28;46056;-74
2021/06/16 10:41:41;;;;;;;;;8.50;8.50;;;;;43.47;20.24;100884.66;4961042;28;46526;-76
2021/06/16 10:44:22;;;;;;;;;10.00;9.00;;;;;43.46;18.97;100877.50;4961729;28;45782;-75
2021/06/16 10:46:51;;;;;;;;;8.50;8.50;;;;;43.35;19.12;100861.44;4954329;28;45356;-79
2021/06/16 10:49:36;;;;;;;;;9.00;9.00;;;;;43.10;19.28;100866.50;4959864;28;45525;-74
2021/06/16 10:52:04;;;;;;;;;10.00;10.00;;;;;42.82;19.74;100865.94;4957619;28;60037;-75
2021/06/16 10:54:31;;;;;;;;;10.00;8.75;;;;;42.50;19.29;100879.94;4957420;28;46368;-74
2021/06/16 10:57:12;;;;;;;;;10.50;10.50;;;;;42.04;20.23;100861.03;4957675;28;45573;-74
2021/06/16 10:59:44;;;;;;;;;9.00;9.00;;;;;41.85;19.79;100863.72;4959322;28;45814;-74
2021/06/16 11:02:10;;;;;;;;;10.50;8.75;;;;;41.92;19.99;100854.75;4958932;28;45639;-77
2021/06/16 11:04:40;;;;;;;;;10.75;9.50;;;;;41.89;19.40;100856.25;4959206;28;45919;-78
2021/06/16 11:07:32;;;;;;;;;9.50;8.00;;;;;41.82;19.90;100847.78;4956175;28;45623;-77
2021/06/16 11:10:05;;;;;;;;;8.50;8.50;;;;;41.85;19.74;100855.41;4958780;28;45591;-77
2021/06/16 11:12:42;;;;;;;;;9.00;8.75;;;;;41.63;20.66;100854.84;4959736;28;45641;-76
2021/06/16 11:15:24;;;;;;;;;9.25;7.75;;;;;41.79;19.73;100846.53;4954674;28;45596;-76